sensor_id;sensor_type;location;lat;lon;timestamp;temperature;humidity
45619;DHT22;31343;47.520;19.144;2023-10-19T00:01:07;9.50;99.90
45619;DHT22;31343;47.520;19.144;2023-10-19T00:03:34;9.50;99.90
45619;DHT22;31343;47.520;19.144;2023-10-19T00:05:59;9.50;99.90
45619;DHT22;31343;47.520;19.144;2023-10-19T00:08:25;9.50;99.90
45619;DHT22;31343;47.520;19.144;2023-10-19T00:10:54;9.60;99.90
45619;DHT22;31343;47.520;19.144;2023-10-19T00:13:39;9.60;99.90
45619;DHT22;31343;47.520;19.144;2023-10-19T00:16:05;9.60;99.90
45619;DHT22;31343;47.520;19.144;2023-10-19T00:18:46;9.60;99.90
45619;DHT22;31343;47.520;19.144;2023-10-19T00:21:13;9.70;99.90
45619;DHT22;31343;47.520;19.144;2023-10-19T00:23:46;9.60;99.90
45619;DHT22;31343;47.520;19.144;2023-10-19T00:26:17;9.70;99.90
45619;DHT22;31343;47.520;19.144;2023-10-19T00:28:45;9.70;99.90
45619;DHT22;31343;47.520;19.144;2023-10-19T00:31:12;9.70;99.90
45619;DHT22;31343;47.520;19.144;2023-10-19T00:33:39;9.70;99.90
45619;DHT22;31343;47.520;19.144;2023-10-19T00:36:05;9.70;99.90
45619;DHT22;31343;47.520;19.144;2023-10-19T00:38:34;9.70;99.90
45619;DHT22;31343;47.520;19.144;2023-10-19T00:41:02;9.60;99.90
45619;DHT22;31343;47.520;19.144;2023-10-19T00:43:37;9.70;99.90
45619;DHT22;31343;47.520;19.144;2023-10-19T00:46:08;9.70;99.90
45619;DHT22;31343;47.520;19.144;2023-10-19T00:48:55;9.70;99.90
45619;DHT22;31343;47.520;19.144;2023-10-19T00:51:27;9.80;99.90
45619;DHT22;31343;47.520;19.144;2023-10-19T00:53:56;9.70;99.90
45619;DHT22;31343;47.520;19.144;2023-10-19T00:56:23;9.80;99.90
45619;DHT22;31343;47.520;19.144;2023-10-19T00:58:52;9.80;99.90
45619;DHT22;31343;47.520;19.144;2023-10-19T01:01:28;9.80;99.90
45619;DHT22;31343;47.520;19.144;2023-10-19T01:03:54;9.70;99.90
45619;DHT22;31343;47.520;19.144;2023-10-19T01:06:23;9.70;99.90
45619;DHT22;31343;47.520;19.144;2023-10-19T01:08:49;9.70;99.90
45619;DHT22;31343;47.520;19.144;2023-10-19T01:11:16;9.70;99.90
45619;DHT22;31343;47.520;19.144;2023-10-19T01:13:45;9.80;99.90
45619;DHT22;31343;47.520;19.144;2023-10-19T01:16:12;9.80;99.90
45619;DHT22;31343;47.520;19.144;2023-10-19T01:18:49;9.70;99.90
45619;DHT22;31343;47.520;19.144;2023-10-19T01:21:19;9.70;99.90
45619;DHT22;31343;47.520;19.144;2023-10-19T01:23:46;9.80;99.90
45619;DHT22;31343;47.520;19.144;2023-10-19T01:26:13;9.60;99.90
45619;DHT22;31343;47.520;19.144;2023-10-19T01:28:43;9.70;99.90
45619;DHT22;31343;47.520;19.144;2023-10-19T01:31:21;9.80;99.90
45619;DHT22;31343;47.520;19.144;2023-10-19T01:33:54;9.60;99.90
45619;DHT22;31343;47.520;19.144;2023-10-19T01:36:33;9.70;99.90
45619;DHT22;31343;47.520;19.144;2023-10-19T01:39:09;9.80;99.90
45619;DHT22;31343;47.520;19.144;2023-10-19T01:41:36;9.80;99.90
45619;DHT22;31343;47.520;19.144;2023-10-19T01:44:02;9.60;99.90
45619;DHT22;31343;47.520;19.144;2023-10-19T01:46:32;9.70;99.90
45619;DHT22;31343;47.520;19.144;2023-10-19T01:49:01;9.70;99.90
45619;DHT22;31343;47.520;19.144;2023-10-19T01:51:30;9.60;99.90
45619;DHT22;31343;47.520;19.144;2023-10-19T01:53:58;9.70;99.90
45619;DHT22;31343;47.520;19.144;2023-10-19T01:56:26;9.50;99.90
45619;DHT22;31343;47.520;19.144;2023-10-19T01:58:52;9.60;99.90
45619;DHT22;31343;47.520;19.144;2023-10-19T02:01:18;9.60;99.90
45619;DHT22;31343;47.520;19.144;2023-10-19T02:03:53;9.50;99.90
45619;DHT22;31343;47.520;19.144;2023-10-19T02:06:28;9.40;99.90
45619;DHT22;31343;47.520;19.144;2023-10-19T02:09:04;9.40;99.90
45619;DHT22;31343;47.520;19.144;2023-10-19T02:11:46;9.30;99.90
45619;DHT22;31343;47.520;19.144;2023-10-19T02:14:12;9.20;99.90
45619;DHT22;31343;47.520;19.144;2023-10-19T02:16:51;9.20;99.90
45619;DHT22;31343;47.520;19.144;2023-10-19T02:19:17;9.30;99.90
45619;DHT22;31343;47.520;19.144;2023-10-19T02:21:43;9.20;99.90
45619;DHT22;31343;47.520;19.144;2023-10-19T02:24:09;9.20;99.90
45619;DHT22;31343;47.520;19.144;2023-10-19T02:26:36;9.10;99.90
45619;DHT22;31343;47.520;19.144;2023-10-19T02:29:03;9.10;99.90
45619;DHT22;31343;47.520;19.144;2023-10-19T02:31:41;9.20;99.90
45619;DHT22;31343;47.520;19.144;2023-10-19T02:34:08;9.10;99.90
45619;DHT22;31343;47.520;19.144;2023-10-19T02:36:36;9.10;99.90
45619;DHT22;31343;47.520;19.144;2023-10-19T02:39:03;9.00;99.90
45619;DHT22;31343;47.520;19.144;2023-10-19T02:41:33;9.00;99.90
45619;DHT22;31343;47.520;19.144;2023-10-19T02:44:00;9.00;99.90
45619;DHT22;31343;47.520;19.144;2023-10-19T02:46:28;9.00;99.90
45619;DHT22;31343;47.520;19.144;2023-10-19T02:48:54;9.00;99.90
45619;DHT22;31343;47.520;19.144;2023-10-19T02:51:20;9.00;99.90
45619;DHT22;31343;47.520;19.144;2023-10-19T02:53:46;8.90;99.90
45619;DHT22;31343;47.520;19.144;2023-10-19T02:56:12;9.00;99.90
45619;DHT22;31343;47.520;19.144;2023-10-19T02:58:40;9.00;99.90
45619;DHT22;31343;47.520;19.144;2023-10-19T03:01:14;8.90;99.90
45619;DHT22;31343;47.520;19.144;2023-10-19T03:03:42;8.90;99.90
45619;DHT22;31343;47.520;19.144;2023-10-19T03:06:09;8.90;99.90
45619;DHT22;31343;47.520;19.144;2023-10-19T03:08:35;8.80;99.90
45619;DHT22;31343;47.520;19.144;2023-10-19T03:11:01;8.70;99.90
45619;DHT22;31343;47.520;19.144;2023-10-19T03:13:29;8.60;99.90
45619;DHT22;31343;47.520;19.144;2023-10-19T03:15:58;8.60;99.90
45619;DHT22;31343;47.520;19.144;2023-10-19T03:18:27;8.70;99.90
45619;DHT22;31343;47.520;19.144;2023-10-19T03:20:54;8.60;99.90
45619;DHT22;31343;47.520;19.144;2023-10-19T03:23:19;8.70;99.90
45619;DHT22;31343;47.520;19.144;2023-10-19T03:25:46;8.60;99.90
45619;DHT22;31343;47.520;19.144;2023-10-19T03:28:24;8.70;99.90
45619;DHT22;31343;47.520;19.144;2023-10-19T03:30:51;8.60;99.90
45619;DHT22;31343;47.520;19.144;2023-10-19T03:33:17;8.70;99.90
45619;DHT22;31343;47.520;19.144;2023-10-19T03:35:43;8.70;99.90
45619;DHT22;31343;47.520;19.144;2023-10-19T03:38:09;8.60;99.90
45619;DHT22;31343;47.520;19.144;2023-10-19T03:40:42;8.60;99.90
45619;DHT22;31343;47.520;19.144;2023-10-19T03:43:17;8.60;99.90
45619;DHT22;31343;47.520;19.144;2023-10-19T03:45:44;8.70;99.90
45619;DHT22;31343;47.520;19.144;2023-10-19T03:48:17;8.60;99.90
45619;DHT22;31343;47.520;19.144;2023-10-19T03:50:43;8.70;99.90
45619;DHT22;31343;47.520;19.144;2023-10-19T03:53:09;8.70;99.90
45619;DHT22;31343;47.520;19.144;2023-10-19T03:55:38;8.60;99.90
45619;DHT22;31343;47.520;19.144;2023-10-19T03:58:04;8.60;99.90
45619;DHT22;31343;47.520;19.144;2023-10-19T04:00:30;8.60;99.90
45619;DHT22;31343;47.520;19.144;2023-10-19T04:02:58;8.60;99.90
45619;DHT22;31343;47.520;19.144;2023-10-19T04:05:24;8.60;99.90
45619;DHT22;31343;47.520;19.144;2023-10-19T04:07:53;8.50;99.90
45619;DHT22;31343;47.520;19.144;2023-10-19T04:10:29;8.50;99.90
45619;DHT22;31343;47.520;19.144;2023-10-19T04:12:55;8.50;99.90
45619;DHT22;31343;47.520;19.144;2023-10-19T04:15:22;8.30;99.90
45619;DHT22;31343;47.520;19.144;2023-10-19T04:17:48;8.20;99.90
45619;DHT22;31343;47.520;19.144;2023-10-19T04:20:14;8.30;99.90
45619;DHT22;31343;47.520;19.144;2023-10-19T04:22:43;8.30;99.90
45619;DHT22;31343;47.520;19.144;2023-10-19T04:25:09;8.20;99.90
45619;DHT22;31343;47.520;19.144;2023-10-19T04:27:38;8.20;99.90
45619;DHT22;31343;47.520;19.144;2023-10-19T04:30:04;8.20;99.90
45619;DHT22;31343;47.520;19.144;2023-10-19T04:32:29;8.20;99.90
45619;DHT22;31343;47.520;19.144;2023-10-19T04:34:57;8.10;99.90
45619;DHT22;31343;47.520;19.144;2023-10-19T04:37:24;8.00;99.90
45619;DHT22;31343;47.520;19.144;2023-10-19T04:39:49;7.90;99.90
45619;DHT22;31343;47.520;19.144;2023-10-19T04:42:15;7.90;99.90
45619;DHT22;31343;47.520;19.144;2023-10-19T04:44:41;7.90;99.90
45619;DHT22;31343;47.520;19.144;2023-10-19T04:47:07;7.80;99.90
45619;DHT22;31343;47.520;19.144;2023-10-19T04:49:33;7.80;99.90
45619;DHT22;31343;47.520;19.144;2023-10-19T04:51:59;7.90;99.90
45619;DHT22;31343;47.520;19.144;2023-10-19T04:54:24;7.70;99.90
45619;DHT22;31343;47.520;19.144;2023-10-19T04:56:50;7.70;99.90
45619;DHT22;31343;47.520;19.144;2023-10-19T04:59:18;7.70;99.90
45619;DHT22;31343;47.520;19.144;2023-10-19T05:01:43;7.80;99.90
45619;DHT22;31343;47.520;19.144;2023-10-19T05:04:09;7.70;99.90
45619;DHT22;31343;47.520;19.144;2023-10-19T05:06:35;7.70;99.90
45619;DHT22;31343;47.520;19.144;2023-10-19T05:09:00;7.90;99.90
45619;DHT22;31343;47.520;19.144;2023-10-19T05:11:28;8.00;99.90
45619;DHT22;31343;47.520;19.144;2023-10-19T05:13:53;8.00;99.90
45619;DHT22;31343;47.520;19.144;2023-10-19T05:16:19;8.10;99.90
45619;DHT22;31343;47.520;19.144;2023-10-19T05:18:45;8.20;99.90
45619;DHT22;31343;47.520;19.144;2023-10-19T05:21:10;8.30;99.90
45619;DHT22;31343;47.520;19.144;2023-10-19T05:23:38;8.20;99.90
45619;DHT22;31343;47.520;19.144;2023-10-19T05:26:04;8.30;99.90
45619;DHT22;31343;47.520;19.144;2023-10-19T05:28:30;8.40;99.90
45619;DHT22;31343;47.520;19.144;2023-10-19T05:30:56;8.40;99.90
45619;DHT22;31343;47.520;19.144;2023-10-19T05:33:21;8.40;99.90
45619;DHT22;31343;47.520;19.144;2023-10-19T05:35:49;8.30;99.90
45619;DHT22;31343;47.520;19.144;2023-10-19T05:38:15;8.40;99.90
45619;DHT22;31343;47.520;19.144;2023-10-19T05:40:41;8.40;99.90
45619;DHT22;31343;47.520;19.144;2023-10-19T05:43:08;8.50;99.90
45619;DHT22;31343;47.520;19.144;2023-10-19T05:45:34;8.30;99.90
45619;DHT22;31343;47.520;19.144;2023-10-19T05:48:01;8.40;99.90
45619;DHT22;31343;47.520;19.144;2023-10-19T05:50:29;8.40;99.90
45619;DHT22;31343;47.520;19.144;2023-10-19T05:52:54;8.50;99.90
45619;DHT22;31343;47.520;19.144;2023-10-19T05:55:20;8.40;99.90
45619;DHT22;31343;47.520;19.144;2023-10-19T05:57:49;8.50;99.90
45619;DHT22;31343;47.520;19.144;2023-10-19T06:00:15;8.40;99.90
45619;DHT22;31343;47.520;19.144;2023-10-19T06:02:42;8.30;99.90
45619;DHT22;31343;47.520;19.144;2023-10-19T06:05:09;8.20;99.90
45619;DHT22;31343;47.520;19.144;2023-10-19T06:07:34;8.20;99.90
45619;DHT22;31343;47.520;19.144;2023-10-19T06:10:00;8.10;99.90
45619;DHT22;31343;47.520;19.144;2023-10-19T06:12:32;8.20;99.90
45619;DHT22;31343;47.520;19.144;2023-10-19T06:14:58;8.30;99.90
45619;DHT22;31343;47.520;19.144;2023-10-19T06:17:26;8.40;99.90
45619;DHT22;31343;47.520;19.144;2023-10-19T06:19:52;8.50;99.90
45619;DHT22;31343;47.520;19.144;2023-10-19T06:22:17;8.60;99.90
45619;DHT22;31343;47.520;19.144;2023-10-19T06:24:43;8.60;99.90
45619;DHT22;31343;47.520;19.144;2023-10-19T06:27:11;8.60;99.90
45619;DHT22;31343;47.520;19.144;2023-10-19T06:29:37;8.60;99.90
45619;DHT22;31343;47.520;19.144;2023-10-19T06:32:02;8.60;99.90
45619;DHT22;31343;47.520;19.144;2023-10-19T06:34:28;8.60;99.90
45619;DHT22;31343;47.520;19.144;2023-10-19T06:36:55;8.60;99.90
45619;DHT22;31343;47.520;19.144;2023-10-19T06:39:21;8.60;99.90
45619;DHT22;31343;47.520;19.144;2023-10-19T06:41:47;8.50;99.90
45619;DHT22;31343;47.520;19.144;2023-10-19T06:44:13;8.50;99.90
45619;DHT22;31343;47.520;19.144;2023-10-19T06:46:39;8.50;99.90
45619;DHT22;31343;47.520;19.144;2023-10-19T06:49:05;8.60;99.90
45619;DHT22;31343;47.520;19.144;2023-10-19T06:51:30;8.70;99.90
45619;DHT22;31343;47.520;19.144;2023-10-19T06:53:58;8.80;99.90
45619;DHT22;31343;47.520;19.144;2023-10-19T06:56:24;8.90;99.90
45619;DHT22;31343;47.520;19.144;2023-10-19T06:58:50;8.80;99.90
45619;DHT22;31343;47.520;19.144;2023-10-19T07:01:15;9.00;99.90
45619;DHT22;31343;47.520;19.144;2023-10-19T07:03:43;9.00;99.90
45619;DHT22;31343;47.520;19.144;2023-10-19T07:06:09;9.00;99.90
45619;DHT22;31343;47.520;19.144;2023-10-19T07:08:41;9.10;99.90
45619;DHT22;31343;47.520;19.144;2023-10-19T07:11:07;9.10;99.90
45619;DHT22;31343;47.520;19.144;2023-10-19T07:13:33;9.10;99.90
45619;DHT22;31343;47.520;19.144;2023-10-19T07:15:59;9.20;99.90
45619;DHT22;31343;47.520;19.144;2023-10-19T07:18:25;9.20;99.90
45619;DHT22;31343;47.520;19.144;2023-10-19T07:20:51;9.20;99.90
45619;DHT22;31343;47.520;19.144;2023-10-19T07:23:18;9.20;99.90
45619;DHT22;31343;47.520;19.144;2023-10-19T07:25:45;9.20;99.90
45619;DHT22;31343;47.520;19.144;2023-10-19T07:28:13;9.20;99.90
45619;DHT22;31343;47.520;19.144;2023-10-19T07:30:39;9.30;99.90
45619;DHT22;31343;47.520;19.144;2023-10-19T07:33:07;9.30;99.90
45619;DHT22;31343;47.520;19.144;2023-10-19T07:35:35;9.40;99.90
45619;DHT22;31343;47.520;19.144;2023-10-19T07:38:04;9.40;99.90
45619;DHT22;31343;47.520;19.144;2023-10-19T07:40:33;9.40;99.90
45619;DHT22;31343;47.520;19.144;2023-10-19T07:42:58;9.40;99.90
45619;DHT22;31343;47.520;19.144;2023-10-19T07:45:24;9.40;99.90
45619;DHT22;31343;47.520;19.144;2023-10-19T07:47:50;9.50;99.90
45619;DHT22;31343;47.520;19.144;2023-10-19T07:50:16;9.40;99.90
45619;DHT22;31343;47.520;19.144;2023-10-19T07:53:00;9.50;99.90
45619;DHT22;31343;47.520;19.144;2023-10-19T07:55:26;9.60;99.90
45619;DHT22;31343;47.520;19.144;2023-10-19T07:57:52;9.60;99.90
45619;DHT22;31343;47.520;19.144;2023-10-19T08:00:19;9.60;99.90
45619;DHT22;31343;47.520;19.144;2023-10-19T08:02:46;9.60;99.90
45619;DHT22;31343;47.520;19.144;2023-10-19T08:05:15;9.60;99.90
45619;DHT22;31343;47.520;19.144;2023-10-19T08:07:41;9.60;99.90
45619;DHT22;31343;47.520;19.144;2023-10-19T08:10:10;9.70;99.90
45619;DHT22;31343;47.520;19.144;2023-10-19T08:12:40;9.70;99.90
45619;DHT22;31343;47.520;19.144;2023-10-19T08:15:07;9.80;99.90
45619;DHT22;31343;47.520;19.144;2023-10-19T08:17:33;9.90;99.90
45619;DHT22;31343;47.520;19.144;2023-10-19T08:19:59;9.80;99.90
45619;DHT22;31343;47.520;19.144;2023-10-19T08:22:28;9.70;99.90
45619;DHT22;31343;47.520;19.144;2023-10-19T08:24:54;9.70;99.90
45619;DHT22;31343;47.520;19.144;2023-10-19T08:27:20;9.80;99.90
45619;DHT22;31343;47.520;19.144;2023-10-19T08:29:46;10.00;99.90
45619;DHT22;31343;47.520;19.144;2023-10-19T08:32:12;10.00;99.90
45619;DHT22;31343;47.520;19.144;2023-10-19T08:34:39;10.10;99.90
45619;DHT22;31343;47.520;19.144;2023-10-19T08:37:07;10.20;99.90
45619;DHT22;31343;47.520;19.144;2023-10-19T08:39:32;10.20;99.90
45619;DHT22;31343;47.520;19.144;2023-10-19T08:42:02;10.20;99.90
45619;DHT22;31343;47.520;19.144;2023-10-19T08:44:28;10.30;99.90
45619;DHT22;31343;47.520;19.144;2023-10-19T08:46:55;10.30;99.90
45619;DHT22;31343;47.520;19.144;2023-10-19T08:49:22;10.20;99.90
45619;DHT22;31343;47.520;19.144;2023-10-19T08:51:48;10.20;99.90
45619;DHT22;31343;47.520;19.144;2023-10-19T08:54:14;10.30;99.90
45619;DHT22;31343;47.520;19.144;2023-10-19T08:56:40;10.30;99.90
45619;DHT22;31343;47.520;19.144;2023-10-19T08:59:10;10.30;99.90
45619;DHT22;31343;47.520;19.144;2023-10-19T09:01:40;10.30;99.90
45619;DHT22;31343;47.520;19.144;2023-10-19T09:04:11;10.40;99.90
45619;DHT22;31343;47.520;19.144;2023-10-19T09:06:37;10.50;99.90
45619;DHT22;31343;47.520;19.144;2023-10-19T09:09:10;10.50;99.90
45619;DHT22;31343;47.520;19.144;2023-10-19T09:11:42;10.50;99.90
45619;DHT22;31343;47.520;19.144;2023-10-19T09:14:08;10.50;99.90
45619;DHT22;31343;47.520;19.144;2023-10-19T09:16:33;10.60;99.90
45619;DHT22;31343;47.520;19.144;2023-10-19T09:19:02;10.80;99.90
45619;DHT22;31343;47.520;19.144;2023-10-19T09:21:28;10.70;99.90
45619;DHT22;31343;47.520;19.144;2023-10-19T09:23:54;10.70;99.90
45619;DHT22;31343;47.520;19.144;2023-10-19T09:26:20;10.70;99.90
45619;DHT22;31343;47.520;19.144;2023-10-19T09:28:50;10.70;99.90
45619;DHT22;31343;47.520;19.144;2023-10-19T09:31:16;10.70;99.90
45619;DHT22;31343;47.520;19.144;2023-10-19T09:33:43;10.70;99.90
45619;DHT22;31343;47.520;19.144;2023-10-19T09:36:09;11.00;99.90
45619;DHT22;31343;47.520;19.144;2023-10-19T09:38:45;11.00;99.90
45619;DHT22;31343;47.520;19.144;2023-10-19T09:41:14;11.20;99.90
45619;DHT22;31343;47.520;19.144;2023-10-19T09:46:07;11.40;99.90
45619;DHT22;31343;47.520;19.144;2023-10-19T09:48:34;11.40;99.90
45619;DHT22;31343;47.520;19.144;2023-10-19T09:51:04;11.40;99.90
45619;DHT22;31343;47.520;19.144;2023-10-19T09:53:31;11.70;99.90
45619;DHT22;31343;47.520;19.144;2023-10-19T09:55:58;11.70;99.90
45619;DHT22;31343;47.520;19.144;2023-10-19T09:58:25;11.90;99.90
45619;DHT22;31343;47.520;19.144;2023-10-19T10:00:51;12.00;99.90
45619;DHT22;31343;47.520;19.144;2023-10-19T10:06:02;12.10;99.90
45619;DHT22;31343;47.520;19.144;2023-10-19T10:08:29;12.30;99.90
45619;DHT22;31343;47.520;19.144;2023-10-19T10:10:56;12.40;99.90
45619;DHT22;31343;47.520;19.144;2023-10-19T10:15:52;12.50;99.90
45619;DHT22;31343;47.520;19.144;2023-10-19T10:18:18;12.70;99.90
45619;DHT22;31343;47.520;19.144;2023-10-19T10:20:44;12.70;99.90
45619;DHT22;31343;47.520;19.144;2023-10-19T10:23:19;12.50;99.90
45619;DHT22;31343;47.520;19.144;2023-10-19T10:25:47;12.70;99.90
45619;DHT22;31343;47.520;19.144;2023-10-19T10:28:19;12.60;99.90
45619;DHT22;31343;47.520;19.144;2023-10-19T10:33:42;12.80;99.90
45619;DHT22;31343;47.520;19.144;2023-10-19T10:36:10;12.80;99.90
45619;DHT22;31343;47.520;19.144;2023-10-19T10:38:36;12.80;99.90
45619;DHT22;31343;47.520;19.144;2023-10-19T10:41:03;12.80;99.90
45619;DHT22;31343;47.520;19.144;2023-10-19T10:43:28;13.00;99.90
45619;DHT22;31343;47.520;19.144;2023-10-19T10:46:04;13.10;99.90
45619;DHT22;31343;47.520;19.144;2023-10-19T10:48:30;13.20;99.90
45619;DHT22;31343;47.520;19.144;2023-10-19T10:50:56;13.30;99.90
45619;DHT22;31343;47.520;19.144;2023-10-19T10:53:22;13.40;99.90
45619;DHT22;31343;47.520;19.144;2023-10-19T10:55:50;13.50;99.90
45619;DHT22;31343;47.520;19.144;2023-10-19T10:58:16;13.70;99.90
45619;DHT22;31343;47.520;19.144;2023-10-19T11:00:42;13.70;99.90
45619;DHT22;31343;47.520;19.144;2023-10-19T11:03:08;13.50;99.90
45619;DHT22;31343;47.520;19.144;2023-10-19T11:05:38;13.40;99.90
45619;DHT22;31343;47.520;19.144;2023-10-19T11:08:07;13.50;99.90
45619;DHT22;31343;47.520;19.144;2023-10-19T11:10:34;13.50;99.90
45619;DHT22;31343;47.520;19.144;2023-10-19T11:13:07;13.50;99.90
45619;DHT22;31343;47.520;19.144;2023-10-19T11:15:33;13.60;99.90
45619;DHT22;31343;47.520;19.144;2023-10-19T11:17:59;13.70;99.90
45619;DHT22;31343;47.520;19.144;2023-10-19T11:20:26;14.40;99.90
45619;DHT22;31343;47.520;19.144;2023-10-19T11:22:54;15.00;99.90
45619;DHT22;31343;47.520;19.144;2023-10-19T11:25:29;15.20;99.90
45619;DHT22;31343;47.520;19.144;2023-10-19T11:27:56;15.50;99.90
45619;DHT22;31343;47.520;19.144;2023-10-19T11:30:25;15.30;99.90
45619;DHT22;31343;47.520;19.144;2023-10-19T11:32:52;15.80;99.90
45619;DHT22;31343;47.520;19.144;2023-10-19T11:35:22;16.20;99.90
45619;DHT22;31343;47.520;19.144;2023-10-19T11:37:48;15.60;99.90
45619;DHT22;31343;47.520;19.144;2023-10-19T11:40:14;15.40;99.90
45619;DHT22;31343;47.520;19.144;2023-10-19T11:42:42;16.00;99.90
45619;DHT22;31343;47.520;19.144;2023-10-19T11:45:07;16.20;99.90
45619;DHT22;31343;47.520;19.144;2023-10-19T11:47:33;16.30;99.90
45619;DHT22;31343;47.520;19.144;2023-10-19T11:50:00;16.30;99.90
45619;DHT22;31343;47.520;19.144;2023-10-19T11:52:25;16.30;99.90
45619;DHT22;31343;47.520;19.144;2023-10-19T11:54:53;16.30;99.90
45619;DHT22;31343;47.520;19.144;2023-10-19T11:57:19;15.90;99.90
45619;DHT22;31343;47.520;19.144;2023-10-19T11:59:45;15.60;99.90
45619;DHT22;31343;47.520;19.144;2023-10-19T12:02:10;15.10;99.90
45619;DHT22;31343;47.520;19.144;2023-10-19T12:04:37;15.10;99.90
45619;DHT22;31343;47.520;19.144;2023-10-19T12:07:02;15.20;99.90
45619;DHT22;31343;47.520;19.144;2023-10-19T12:09:29;15.50;99.90
45619;DHT22;31343;47.520;19.144;2023-10-19T12:11:55;15.80;99.90
45619;DHT22;31343;47.520;19.144;2023-10-19T12:14:21;16.20;99.90
45619;DHT22;31343;47.520;19.144;2023-10-19T12:16:48;16.30;99.90
45619;DHT22;31343;47.520;19.144;2023-10-19T12:19:14;16.60;99.90
45619;DHT22;31343;47.520;19.144;2023-10-19T12:21:40;16.90;99.90
45619;DHT22;31343;47.520;19.144;2023-10-19T12:24:07;16.50;99.90
45619;DHT22;31343;47.520;19.144;2023-10-19T12:26:33;17.00;99.90
45619;DHT22;31343;47.520;19.144;2023-10-19T12:28:59;17.60;99.90
45619;DHT22;31343;47.520;19.144;2023-10-19T12:31:24;17.20;99.90
45619;DHT22;31343;47.520;19.144;2023-10-19T12:33:51;17.10;99.90
45619;DHT22;31343;47.520;19.144;2023-10-19T12:36:16;17.10;99.90
45619;DHT22;31343;47.520;19.144;2023-10-19T12:38:48;17.10;99.90
45619;DHT22;31343;47.520;19.144;2023-10-19T12:41:14;16.60;99.90
45619;DHT22;31343;47.520;19.144;2023-10-19T12:43:40;16.30;99.90
45619;DHT22;31343;47.520;19.144;2023-10-19T12:46:05;16.20;99.90
45619;DHT22;31343;47.520;19.144;2023-10-19T12:48:34;16.30;99.90
45619;DHT22;31343;47.520;19.144;2023-10-19T12:51:00;16.40;99.90
45619;DHT22;31343;47.520;19.144;2023-10-19T12:53:29;16.30;99.90
45619;DHT22;31343;47.520;19.144;2023-10-19T12:55:55;16.30;99.90
45619;DHT22;31343;47.520;19.144;2023-10-19T12:58:21;16.20;99.90
45619;DHT22;31343;47.520;19.144;2023-10-19T13:00:47;16.20;99.90
45619;DHT22;31343;47.520;19.144;2023-10-19T13:03:14;16.20;99.90
45619;DHT22;31343;47.520;19.144;2023-10-19T13:05:41;16.30;99.90
45619;DHT22;31343;47.520;19.144;2023-10-19T13:08:08;16.30;99.90
45619;DHT22;31343;47.520;19.144;2023-10-19T13:10:34;16.40;99.90
45619;DHT22;31343;47.520;19.144;2023-10-19T13:13:00;16.40;99.90
45619;DHT22;31343;47.520;19.144;2023-10-19T13:15:29;16.20;99.90
45619;DHT22;31343;47.520;19.144;2023-10-19T13:17:56;16.10;99.90
45619;DHT22;31343;47.520;19.144;2023-10-19T13:20:24;15.80;99.90
45619;DHT22;31343;47.520;19.144;2023-10-19T13:22:52;16.10;99.90
45619;DHT22;31343;47.520;19.144;2023-10-19T13:25:18;16.20;99.90
45619;DHT22;31343;47.520;19.144;2023-10-19T13:27:44;16.40;99.90
45619;DHT22;31343;47.520;19.144;2023-10-19T13:30:13;16.40;99.90
45619;DHT22;31343;47.520;19.144;2023-10-19T13:32:40;16.50;99.90
45619;DHT22;31343;47.520;19.144;2023-10-19T13:35:07;16.50;99.90
45619;DHT22;31343;47.520;19.144;2023-10-19T13:37:33;16.50;99.90
45619;DHT22;31343;47.520;19.144;2023-10-19T13:39:59;16.30;99.90
45619;DHT22;31343;47.520;19.144;2023-10-19T13:42:24;16.20;99.90
45619;DHT22;31343;47.520;19.144;2023-10-19T13:44:50;16.10;99.90
45619;DHT22;31343;47.520;19.144;2023-10-19T13:47:16;16.00;99.90
45619;DHT22;31343;47.520;19.144;2023-10-19T13:49:41;16.00;99.90
45619;DHT22;31343;47.520;19.144;2023-10-19T13:52:07;15.90;99.90
45619;DHT22;31343;47.520;19.144;2023-10-19T13:54:36;15.70;99.90
45619;DHT22;31343;47.520;19.144;2023-10-19T13:57:02;15.60;99.90
45619;DHT22;31343;47.520;19.144;2023-10-19T13:59:28;15.50;99.90
45619;DHT22;31343;47.520;19.144;2023-10-19T14:01:53;15.40;99.90
45619;DHT22;31343;47.520;19.144;2023-10-19T14:04:19;15.30;99.90
45619;DHT22;31343;47.520;19.144;2023-10-19T14:06:45;15.00;99.90
45619;DHT22;31343;47.520;19.144;2023-10-19T14:09:14;15.00;99.90
45619;DHT22;31343;47.520;19.144;2023-10-19T14:11:40;14.90;99.90
45619;DHT22;31343;47.520;19.144;2023-10-19T14:14:06;14.90;99.90
45619;DHT22;31343;47.520;19.144;2023-10-19T14:16:32;14.90;99.90
45619;DHT22;31343;47.520;19.144;2023-10-19T14:18:58;14.90;99.90
45619;DHT22;31343;47.520;19.144;2023-10-19T14:21:23;14.70;99.90
45619;DHT22;31343;47.520;19.144;2023-10-19T14:23:52;14.60;99.90
45619;DHT22;31343;47.520;19.144;2023-10-19T14:26:18;14.60;99.90
45619;DHT22;31343;47.520;19.144;2023-10-19T14:28:44;14.50;99.90
45619;DHT22;31343;47.520;19.144;2023-10-19T14:31:10;14.40;99.90
45619;DHT22;31343;47.520;19.144;2023-10-19T14:33:38;14.30;99.90
45619;DHT22;31343;47.520;19.144;2023-10-19T14:36:03;14.30;99.90
45619;DHT22;31343;47.520;19.144;2023-10-19T14:38:29;14.30;99.90
45619;DHT22;31343;47.520;19.144;2023-10-19T14:40:55;14.20;99.90
45619;DHT22;31343;47.520;19.144;2023-10-19T14:43:20;14.10;99.90
45619;DHT22;31343;47.520;19.144;2023-10-19T14:45:46;14.10;99.90
45619;DHT22;31343;47.520;19.144;2023-10-19T14:48:12;14.10;99.90
45619;DHT22;31343;47.520;19.144;2023-10-19T14:50:38;14.10;99.90
45619;DHT22;31343;47.520;19.144;2023-10-19T14:53:04;14.10;99.90
45619;DHT22;31343;47.520;19.144;2023-10-19T14:55:30;14.00;99.90
45619;DHT22;31343;47.520;19.144;2023-10-19T14:57:57;13.90;99.90
45619;DHT22;31343;47.520;19.144;2023-10-19T15:00:23;13.90;99.90
45619;DHT22;31343;47.520;19.144;2023-10-19T15:02:52;13.90;99.90
45619;DHT22;31343;47.520;19.144;2023-10-19T15:05:21;14.00;99.90
45619;DHT22;31343;47.520;19.144;2023-10-19T15:07:47;13.90;99.90
45619;DHT22;31343;47.520;19.144;2023-10-19T15:10:20;13.90;99.90
45619;DHT22;31343;47.520;19.144;2023-10-19T15:12:46;13.90;99.90
45619;DHT22;31343;47.520;19.144;2023-10-19T15:15:12;14.00;99.90
45619;DHT22;31343;47.520;19.144;2023-10-19T15:17:48;13.90;99.90
45619;DHT22;31343;47.520;19.144;2023-10-19T15:20:16;13.90;99.90
45619;DHT22;31343;47.520;19.144;2023-10-19T15:22:43;13.80;99.90
45619;DHT22;31343;47.520;19.144;2023-10-19T15:25:09;13.80;99.90
45619;DHT22;31343;47.520;19.144;2023-10-19T15:27:36;13.70;99.90
45619;DHT22;31343;47.520;19.144;2023-10-19T15:30:02;13.70;99.90
45619;DHT22;31343;47.520;19.144;2023-10-19T15:32:28;13.70;99.90
45619;DHT22;31343;47.520;19.144;2023-10-19T15:34:56;13.60;99.90
45619;DHT22;31343;47.520;19.144;2023-10-19T15:37:22;13.70;99.90